Time;durP1;ratioP1;P1;durP2;ratioP2;P2;SDS_P1;SDS_P2;PMS_P1;PMS_P2;Temp;Humidity;BMP_temperature;BMP_pressure;BME280_temperature;BME280_humidity;BME280_pressure;Samples;Min_cycle;Max_cycle;Signal;HPM_P1;HPM_P2
2023/07/04 00:00:37;;;;;;;2.33;1.80;;;18.90;99.90;;;;;;4929589;29;20247;-71
2023/07/04 00:03:03;;;;;;;3.00;2.40;;;18.80;99.90;;;;;;4923882;29;20210;-70
2023/07/04 00:05:29;;;;;;;2.73;2.10;;;18.80;99.90;;;;;;4928601;29;20554;-70
2023/07/04 00:07:54;;;;;;;2.30;1.90;;;18.80;99.90;;;;;;4924250;29;20192;-70
2023/07/04 00:10:20;;;;;;;3.10;2.27;;;18.80;99.90;;;;;;4924921;29;20221;-70
2023/07/04 00:12:46;;;;;;;1.63;1.53;;;18.60;99.90;;;;;;4927792;29;20209;-70
2023/07/04 00:15:13;;;;;;;2.10;1.85;;;18.80;99.90;;;;;;4926960;29;20639;-71
2023/07/04 00:17:39;;;;;;;2.90;2.40;;;18.70;99.90;;;;;;4923955;29;20511;-71
2023/07/04 00:20:06;;;;;;;2.50;1.70;;;18.70;99.90;;;;;;4941641;28;20193;-71
2023/07/04 00:22:33;;;;;;;2.63;2.05;;;18.70;99.90;;;;;;4926553;29;20853;-71
2023/07/04 00:24:59;;;;;;;3.05;2.25;;;18.70;99.90;;;;;;4926639;29;20720;-71
2023/07/04 00:27:25;;;;;;;4.27;2.00;;;18.70;99.90;;;;;;4922804;29;20186;-69
2023/07/04 00:29:51;;;;;;;2.20;2.00;;;18.60;99.90;;;;;;4924004;29;20209;-71
2023/07/04 00:32:16;;;;;;;2.95;2.15;;;18.50;99.90;;;;;;4922574;29;20216;-71
2023/07/04 00:34:45;;;;;;;2.53;2.33;;;18.60;99.90;;;;;;4926201;29;20434;-71
2023/07/04 00:37:11;;;;;;;3.05;2.20;;;18.60;99.90;;;;;;4924195;29;20185;-70
2023/07/04 00:39:37;;;;;;;3.05;1.70;;;18.50;99.90;;;;;;4928041;29;20220;-70
2023/07/04 00:42:07;;;;;;;2.40;2.17;;;18.60;99.90;;;;;;4923895;29;20320;-71
2023/07/04 00:44:37;;;;;;;4.65;2.28;;;18.60;99.90;;;;;;4927437;29;20210;-71
2023/07/04 00:47:21;;;;;;;2.63;2.38;;;18.60;99.90;;;;;;4920315;29;20193;-71
2023/07/04 00:49:50;;;;;;;2.78;2.30;;;18.50;99.90;;;;;;4920387;29;20280;-71
2023/07/04 00:52:23;;;;;;;2.85;2.47;;;18.70;99.90;;;;;;4923026;29;20201;-71
2023/07/04 00:54:52;;;;;;;2.05;1.85;;;18.70;99.90;;;;;;4919408;29;20719;-71
2023/07/04 00:57:20;;;;;;;2.83;2.28;;;18.80;99.90;;;;;;4922734;29;20185;-70
2023/07/04 00:59:48;;;;;;;3.15;2.40;;;18.70;99.90;;;;;;4926986;29;20656;-71
2023/07/04 01:02:19;;;;;;;3.22;2.58;;;18.70;99.90;;;;;;4924439;29;20214;-70
2023/07/04 01:04:48;;;;;;;2.58;2.38;;;18.70;99.90;;;;;;4924541;29;20741;-71
2023/07/04 01:07:23;;;;;;;2.50;2.30;;;18.80;99.90;;;;;;4921728;29;20604;-70
2023/07/04 01:09:55;;;;;;;2.60;2.40;;;18.70;99.90;;;;;;4923373;29;21030;-70
2023/07/04 01:12:29;;;;;;;3.47;2.45;;;18.80;99.90;;;;;;4918560;29;20210;-70
2023/07/04 01:14:56;;;;;;;3.30;2.40;;;18.70;99.90;;;;;;4923477;29;20624;-70
2023/07/04 01:17:21;;;;;;;2.53;2.30;;;18.70;99.90;;;;;;4920337;29;20240;-70
2023/07/04 01:19:47;;;;;;;2.60;2.40;;;18.70;99.90;;;;;;4924602;29;20181;-72
2023/07/04 01:22:19;;;;;;;3.00;2.80;;;18.70;99.90;;;;;;4924062;29;20316;-72
2023/07/04 01:25:20;;;;;;;3.75;2.70;;;18.80;99.90;;;;;;4924728;29;20585;-70
2023/07/04 01:27:49;;;;;;;2.60;2.40;;;18.60;99.90;;;;;;4889732;29;20201;-70
2023/07/04 01:30:16;;;;;;;2.38;2.17;;;18.70;99.90;;;;;;4926015;29;20269;-70
2023/07/04 01:32:42;;;;;;;3.85;2.72;;;18.70;99.90;;;;;;4927990;29;20342;-71
2023/07/04 01:35:13;;;;;;;2.38;2.13;;;18.70;99.90;;;;;;4926790;29;20280;-71
2023/07/04 01:37:39;;;;;;;2.85;2.50;;;18.80;99.90;;;;;;4927714;29;20679;-70
2023/07/04 01:40:08;;;;;;;3.83;3.00;;;18.80;99.90;;;;;;4926575;29;20201;-71
2023/07/04 01:42:36;;;;;;;2.95;2.75;;;18.80;99.90;;;;;;4922520;29;20774;-70
2023/07/04 01:45:04;;;;;;;2.40;2.28;;;18.70;99.90;;;;;;4927880;29;20194;-70
2023/07/04 01:47:31;;;;;;;4.78;3.00;;;18.80;99.90;;;;;;4929296;29;20265;-70
2023/07/04 01:49:57;;;;;;;2.90;2.60;;;18.80;99.90;;;;;;4926223;29;20210;-70
2023/07/04 01:52:25;;;;;;;2.05;1.95;;;18.80;99.90;;;;;;4925875;29;20221;-70
2023/07/04 01:54:51;;;;;;;2.85;2.55;;;18.80;99.90;;;;;;4927231;29;20225;-71
2023/07/04 01:57:16;;;;;;;3.00;2.50;;;18.80;99.90;;;;;;4922777;29;20674;-70
2023/07/04 01:59:42;;;;;;;2.63;2.40;;;18.80;99.90;;;;;;4924739;29;20441;-70
2023/07/04 02:02:07;;;;;;;4.20;2.03;;;19.20;99.90;;;;;;4929937;29;20215;-70
2023/07/04 02:04:33;;;;;;;3.43;2.37;;;19.30;99.90;;;;;;4926486;29;20194;-71
2023/07/04 02:06:59;;;;;;;2.90;2.60;;;18.60;99.90;;;;;;4929587;29;20233;-71
2023/07/04 02:09:24;;;;;;;3.37;2.90;;;19.10;99.90;;;;;;4927143;29;20570;-71
2023/07/04 02:11:50;;;;;;;4.40;2.50;;;18.80;99.90;;;;;;4923998;29;20313;-71
2023/07/04 02:14:17;;;;;;;2.80;2.30;;;18.80;99.90;;;;;;4926887;29;20182;-71
2023/07/04 02:16:43;;;;;;;2.55;2.28;;;18.80;99.90;;;;;;4925610;29;20182;-71
2023/07/04 02:19:09;;;;;;;2.90;2.13;;;18.80;99.90;;;;;;4925106;29;20545;-71
2023/07/04 02:21:35;;;;;;;2.90;2.30;;;18.80;99.90;;;;;;4931252;29;20201;-71
2023/07/04 02:24:04;;;;;;;2.60;2.40;;;18.80;99.90;;;;;;4922910;29;20190;-72
2023/07/04 02:26:32;;;;;;;3.08;2.13;;;18.80;99.90;;;;;;4926422;29;20257;-71
2023/07/04 02:28:58;;;;;;;2.92;2.08;;;18.80;99.90;;;;;;4921296;29;20330;-71
2023/07/04 02:34:07;;;;;;;2.40;2.15;;;18.80;99.90;;;;;;4908257;29;20321;-66
2023/07/04 02:36:32;;;;;;;3.47;2.20;;;18.80;99.90;;;;;;4909550;29;20335;-66
2023/07/04 02:38:58;;;;;;;3.57;2.33;;;18.80;99.90;;;;;;4910748;29;20190;-66
2023/07/04 02:41:23;;;;;;;2.50;2.30;;;18.80;99.90;;;;;;4911466;29;20226;-65
2023/07/04 02:43:51;;;;;;;2.30;2.10;;;18.60;99.90;;;;;;4908540;29;20210;-66
2023/07/04 02:46:16;;;;;;;1.90;1.80;;;18.70;99.90;;;;;;4908711;29;20276;-65
2023/07/04 02:48:42;;;;;;;2.30;2.03;;;18.70;99.90;;;;;;4908945;29;20687;-66
2023/07/04 02:51:08;;;;;;;2.30;1.70;;;18.50;99.90;;;;;;4906708;29;20222;-65
2023/07/04 02:53:33;;;;;;;2.40;2.20;;;18.70;99.90;;;;;;4909672;29;21009;-66
2023/07/04 02:55:59;;;;;;;2.80;2.37;;;18.60;99.90;;;;;;4909405;29;20179;-66
2023/07/04 02:58:24;;;;;;;2.00;1.90;;;18.60;99.90;;;;;;4909169;29;20183;-66
2023/07/04 03:00:51;;;;;;;2.13;1.77;;;18.60;99.90;;;;;;4911655;29;20278;-66
2023/07/04 03:03:17;;;;;;;1.60;1.50;;;18.50;99.90;;;;;;4907314;29;20302;-66
2023/07/04 03:05:43;;;;;;;4.25;2.03;;;18.50;99.90;;;;;;4908372;29;20682;-65
2023/07/04 03:08:09;;;;;;;2.33;1.85;;;18.50;99.90;;;;;;4910578;29;20222;-65
2023/07/04 03:10:34;;;;;;;2.20;2.00;;;18.50;99.90;;;;;;4904504;29;20695;-66
2023/07/04 03:13:00;;;;;;;2.40;2.20;;;18.50;99.90;;;;;;4904332;29;20261;-66
2023/07/04 03:15:26;;;;;;;4.20;2.83;;;18.50;99.90;;;;;;4908784;29;20224;-65
2023/07/04 03:17:53;;;;;;;1.77;1.67;;;18.60;99.90;;;;;;4911884;29;20222;-65
2023/07/04 03:20:19;;;;;;;3.75;2.20;;;18.60;99.90;;;;;;4904848;29;20466;-65
2023/07/04 03:22:45;;;;;;;2.20;2.00;;;18.50;99.90;;;;;;4909376;29;20206;-65
2023/07/04 03:25:11;;;;;;;2.30;2.10;;;18.50;99.90;;;;;;4909585;29;20194;-65
2023/07/04 03:27:39;;;;;;;2.40;2.20;;;18.50;99.90;;;;;;4912129;29;20194;-65
2023/07/04 03:30:07;;;;;;;2.15;1.80;;;18.50;99.90;;;;;;4910471;29;20209;-66
2023/07/04 03:32:33;;;;;;;2.40;2.05;;;18.70;99.90;;;;;;4905820;29;20214;-65
2023/07/04 03:35:01;;;;;;;2.03;1.87;;;18.60;99.90;;;;;;4909513;29;20187;-65
2023/07/04 03:37:27;;;;;;;2.75;2.00;;;18.50;99.90;;;;;;4905376;29;20447;-65
2023/07/04 03:39:53;;;;;;;2.25;2.03;;;18.50;99.90;;;;;;4911786;29;20198;-65
2023/07/04 03:42:19;;;;;;;2.03;1.83;;;18.50;99.90;;;;;;4910862;29;20220;-65
2023/07/04 03:44:44;;;;;;;2.43;2.23;;;18.50;99.90;;;;;;4907820;29;20257;-66
2023/07/04 03:47:10;;;;;;;2.03;1.93;;;18.50;99.90;;;;;;4906787;29;20285;-65
2023/07/04 03:49:36;;;;;;;3.83;2.47;;;18.40;99.90;;;;;;4910404;29;20198;-65
2023/07/04 03:52:01;;;;;;;2.00;1.80;;;18.50;99.90;;;;;;4909571;29;20205;-65
2023/07/04 03:54:27;;;;;;;2.30;2.10;;;18.50;99.90;;;;;;4910826;29;20186;-65
2023/07/04 03:56:52;;;;;;;2.20;2.00;;;18.40;99.90;;;;;;4909206;29;20194;-64
2023/07/04 03:59:18;;;;;;;2.13;1.93;;;18.40;99.90;;;;;;4904769;29;20194;-73
2023/07/04 04:01:45;;;;;;;2.77;2.07;;;18.60;99.90;;;;;;4907324;29;20208;-73
2023/07/04 04:04:11;;;;;;;2.67;1.98;;;18.40;99.90;;;;;;4911116;29;20190;-71
2023/07/04 04:06:36;;;;;;;2.63;2.43;;;18.70;99.90;;;;;;4909182;29;20574;-74
2023/07/04 04:09:02;;;;;;;6.50;2.30;;;18.70;99.90;;;;;;4908774;29;20490;-71
2023/07/04 04:11:28;;;;;;;2.47;2.33;;;18.80;99.90;;;;;;4909699;29;20222;-70
2023/07/04 04:13:53;;;;;;;2.03;1.93;;;18.90;99.90;;;;;;4907835;29;20701;-70
2023/07/04 04:16:21;;;;;;;2.20;2.07;;;18.90;99.90;;;;;;4905650;29;20563;-71
2023/07/04 04:18:48;;;;;;;2.30;2.10;;;19.00;99.90;;;;;;4908683;29;20213;-70
2023/07/04 04:21:13;;;;;;;2.28;2.05;;;19.00;99.90;;;;;;4910006;29;20190;-70
2023/07/04 04:23:39;;;;;;;2.33;2.07;;;18.70;99.90;;;;;;4906412;29;20273;-71
2023/07/04 04:26:04;;;;;;;2.63;2.43;;;19.10;99.90;;;;;;4904070;29;20277;-71
2023/07/04 04:28:30;;;;;;;1.97;1.77;;;19.20;99.90;;;;;;4906512;29;20229;-72
2023/07/04 04:30:56;;;;;;;3.80;1.70;;;19.70;99.90;;;;;;4905017;29;21072;-71
2023/07/04 04:33:21;;;;;;;3.77;2.07;;;19.30;99.90;;;;;;4907626;29;20237;-71
2023/07/04 04:35:47;;;;;;;3.00;2.30;;;19.30;99.90;;;;;;4902655;29;20228;-72
2023/07/04 04:38:12;;;;;;;2.33;2.13;;;19.40;99.90;;;;;;4906481;29;20186;-71
2023/07/04 04:40:38;;;;;;;2.27;1.90;;;19.40;99.90;;;;;;4907900;29;20200;-72
2023/07/04 04:43:04;;;;;;;2.73;2.53;;;19.50;99.90;;;;;;4906319;29;20221;-72
2023/07/04 04:45:30;;;;;;;4.10;2.00;;;19.50;99.90;;;;;;4904392;29;20473;-72
2023/07/04 04:47:56;;;;;;;2.37;2.17;;;19.60;99.90;;;;;;4905646;29;20545;-72
2023/07/04 04:50:30;;;;;;;2.17;1.90;;;19.60;99.90;;;;;;4906218;29;20718;-72
2023/07/04 04:52:57;;;;;;;2.92;2.40;;;19.60;99.90;;;;;;4903085;29;20682;-72
2023/07/04 04:55:23;;;;;;;3.25;2.40;;;19.70;99.90;;;;;;4909103;29;20248;-72
2023/07/04 04:57:49;;;;;;;3.15;2.03;;;19.70;99.90;;;;;;4902233;29;20186;-72
2023/07/04 05:00:16;;;;;;;2.40;2.20;;;19.70;99.90;;;;;;4918645;29;20521;-71
2023/07/04 05:02:42;;;;;;;3.67;2.30;;;19.70;99.90;;;;;;4906328;29;20484;-72
2023/07/04 05:05:08;;;;;;;3.03;2.60;;;19.50;99.90;;;;;;4906678;29;20268;-72
2023/07/04 05:07:34;;;;;;;2.80;2.30;;;19.90;99.90;;;;;;4905234;29;20345;-70
2023/07/04 05:10:00;;;;;;;3.50;2.60;;;20.00;99.90;;;;;;4905986;29;20255;-71
2023/07/04 05:12:26;;;;;;;4.50;2.83;;;20.20;99.90;;;;;;4905520;29;20528;-70
2023/07/04 05:14:51;;;;;;;3.30;2.28;;;20.30;99.90;;;;;;4908843;29;20513;-70
2023/07/04 05:17:17;;;;;;;2.87;2.00;;;20.40;99.90;;;;;;4903728;29;20182;-70
2023/07/04 05:19:46;;;;;;;3.67;2.10;;;20.60;99.90;;;;;;4906251;29;20193;-71
2023/07/04 05:22:11;;;;;;;5.53;2.65;;;20.60;99.90;;;;;;4917335;29;20699;-71
2023/07/04 05:24:37;;;;;;;2.73;2.37;;;20.30;99.90;;;;;;4905948;29;20193;-72
2023/07/04 05:27:03;;;;;;;5.30;2.57;;;20.70;99.90;;;;;;4907171;29;20606;-70
2023/07/04 05:29:28;;;;;;;6.33;2.40;;;20.80;99.90;;;;;;4905896;29;20235;-71
2023/07/04 05:31:54;;;;;;;5.03;2.87;;;20.80;99.90;;;;;;4899835;29;20218;-62
2023/07/04 05:34:20;;;;;;;3.60;2.60;;;20.60;99.90;;;;;;4900545;29;20198;-66
2023/07/04 05:36:45;;;;;;;4.00;2.30;;;20.80;99.90;;;;;;4907951;29;20195;-66
2023/07/04 05:39:11;;;;;;;4.10;2.60;;;20.70;99.90;;;;;;4904683;29;20195;-67
2023/07/04 05:41:37;;;;;;;3.00;2.30;;;20.70;99.90;;;;;;4905998;29;20293;-66
2023/07/04 05:44:05;;;;;;;3.20;2.03;;;20.70;99.90;;;;;;4902812;29;20186;-67
2023/07/04 05:46:31;;;;;;;2.95;2.40;;;20.70;99.90;;;;;;4906888;29;20668;-68
2023/07/04 05:48:58;;;;;;;4.93;3.00;;;20.60;99.90;;;;;;4908502;29;20197;-69
2023/07/04 05:51:24;;;;;;;2.65;2.45;;;20.60;99.90;;;;;;4906080;29;20269;-65
2023/07/04 05:53:51;;;;;;;2.83;2.30;;;20.60;99.90;;;;;;4905191;29;20210;-63
2023/07/04 05:56:26;;;;;;;2.60;2.25;;;20.80;99.90;;;;;;4904404;29;20546;-64
2023/07/04 05:59:02;;;;;;;3.15;2.17;;;20.90;99.90;;;;;;4903386;29;20186;-64
2023/07/04 06:01:34;;;;;;;4.00;2.83;;;21.00;99.90;;;;;;4908431;29;20287;-63
2023/07/04 06:04:04;;;;;;;3.65;2.75;;;21.10;99.90;;;;;;4907847;29;20190;-67
2023/07/04 06:06:35;;;;;;;2.65;2.17;;;21.30;99.90;;;;;;4905249;29;20284;-67
2023/07/04 06:09:04;;;;;;;2.70;2.30;;;21.30;99.90;;;;;;4908152;29;20201;-68
2023/07/04 06:11:32;;;;;;;3.15;2.58;;;21.50;99.90;;;;;;4904615;29;20206;-66
2023/07/04 06:13:58;;;;;;;3.63;2.90;;;21.60;99.20;;;;;;4906300;29;20281;-68
2023/07/04 06:16:24;;;;;;;4.67;2.87;;;21.90;99.30;;;;;;4911532;29;20675;-68
2023/07/04 06:18:50;;;;;;;3.10;2.67;;;22.10;98.60;;;;;;4911244;29;20658;-68
2023/07/04 06:21:19;;;;;;;4.80;2.40;;;22.30;97.40;;;;;;4908289;29;20302;-67
2023/07/04 06:23:45;;;;;;;5.93;3.00;;;22.30;97.10;;;;;;4907845;29;20473;-70
2023/07/04 06:26:11;;;;;;;2.77;2.43;;;22.60;96.90;;;;;;4906179;29;21009;-70
2023/07/04 06:28:38;;;;;;;4.10;2.90;;;22.70;96.20;;;;;;4907721;29;20197;-70
2023/07/04 06:31:10;;;;;;;3.07;2.77;;;22.80;95.40;;;;;;4906129;29;20465;-71
2023/07/04 06:33:35;;;;;;;4.27;2.40;;;22.60;95.50;;;;;;4907226;29;20474;-64
2023/07/04 06:36:01;;;;;;;4.23;2.97;;;22.70;95.70;;;;;;4908395;29;20453;-62
2023/07/04 06:38:27;;;;;;;8.40;3.43;;;22.70;95.30;;;;;;4910122;29;20286;-62
2023/07/04 06:41:01;;;;;;;5.00;3.20;;;22.90;95.20;;;;;;4909685;29;20598;-63
2023/07/04 06:43:28;;;;;;;4.30;2.77;;;23.00;93.60;;;;;;4908175;29;20496;-61
2023/07/04 06:45:55;;;;;;;5.00;3.03;;;23.20;93.20;;;;;;4911092;29;20505;-63
2023/07/04 06:48:22;;;;;;;7.00;2.87;;;23.20;92.80;;;;;;4908515;29;21021;-63
2023/07/04 06:51:26;;;;;;;4.57;2.80;;;23.30;92.80;;;;;;4905777;29;20487;-64
2023/07/04 06:53:51;;;;;;;3.33;2.80;;;23.50;92.30;;;;;;4852075;29;20873;-63
2023/07/04 06:56:22;;;;;;;5.63;3.03;;;23.60;91.30;;;;;;4898723;29;20456;-64
2023/07/04 06:58:53;;;;;;;4.43;3.17;;;23.50;90.80;;;;;;4909429;29;20709;-64
2023/07/04 07:01:21;;;;;;;3.77;2.93;;;23.60;90.70;;;;;;4909247;29;20465;-62
2023/07/04 07:03:48;;;;;;;4.63;3.20;;;23.70;90.20;;;;;;4907261;29;20486;-62
2023/07/04 07:06:13;;;;;;;3.63;2.83;;;24.00;89.40;;;;;;4908574;29;20525;-68
2023/07/04 07:08:39;;;;;;;6.30;3.30;;;24.50;88.10;;;;;;4902531;29;20454;-68
2023/07/04 07:11:07;;;;;;;4.70;3.50;;;24.70;84.50;;;;;;4909470;29;20253;-71
2023/07/04 07:13:33;;;;;;;4.03;3.07;;;24.80;83.70;;;;;;4905185;29;20218;-63
2023/07/04 07:16:09;;;;;;;4.40;3.10;;;24.40;84.80;;;;;;4900112;29;20469;-63
2023/07/04 07:18:35;;;;;;;3.43;2.83;;;24.00;86.30;;;;;;4913628;29;20516;-63
2023/07/04 07:21:02;;;;;;;4.07;3.13;;;24.00;86.60;;;;;;4906968;29;20477;-63
2023/07/04 07:23:30;;;;;;;3.40;2.70;;;23.90;86.00;;;;;;4904239;29;21133;-64
2023/07/04 07:25:58;;;;;;;3.13;2.80;;;23.80;87.20;;;;;;4905946;29;20542;-75
2023/07/04 07:28:25;;;;;;;4.10;2.87;;;23.60;88.60;;;;;;4908396;29;20455;-65
2023/07/04 07:31:01;;;;;;;4.80;3.07;;;23.70;89.90;;;;;;4909723;29;20470;-67
2023/07/04 07:33:28;;;;;;;3.37;3.07;;;23.70;90.20;;;;;;4910320;29;20490;-64
2023/07/04 07:35:54;;;;;;;7.47;3.17;;;23.70;90.00;;;;;;4904537;29;20446;-64
2023/07/04 07:38:19;;;;;;;4.20;3.33;;;23.80;89.10;;;;;;4909240;29;20813;-64
2023/07/04 07:40:54;;;;;;;8.77;3.70;;;23.70;87.60;;;;;;4909692;29;20203;-69
2023/07/04 07:43:20;;;;;;;4.50;3.20;;;23.60;88.80;;;;;;4906774;29;20556;-72
2023/07/04 07:45:46;;;;;;;3.90;2.97;;;23.70;87.00;;;;;;4905455;29;20461;-66
2023/07/04 07:48:13;;;;;;;6.40;3.07;;;23.80;86.60;;;;;;4908332;29;20197;-66
2023/07/04 07:50:42;;;;;;;4.43;3.50;;;24.10;85.90;;;;;;4906148;29;20794;-65
2023/07/04 07:53:08;;;;;;;3.13;2.50;;;24.10;85.00;;;;;;4908584;29;21109;-69
2023/07/04 07:55:33;;;;;;;4.60;3.50;;;24.20;85.50;;;;;;4907785;29;20990;-69
2023/07/04 07:57:59;;;;;;;8.50;4.13;;;24.40;84.80;;;;;;4902338;29;20198;-72
2023/07/04 08:00:24;;;;;;;6.60;4.63;;;24.40;84.80;;;;;;4909135;29;20190;-68
2023/07/04 08:02:50;;;;;;;2.60;2.40;;;24.60;85.00;;;;;;4903277;29;20229;-68
2023/07/04 08:05:16;;;;;;;4.63;3.10;;;24.40;85.10;;;;;;4909418;29;20615;-64
2023/07/04 08:07:41;;;;;;;5.33;3.20;;;24.60;84.70;;;;;;4905953;29;20202;-62
2023/07/04 08:10:07;;;;;;;7.17;4.30;;;24.60;84.50;;;;;;4907416;29;20478;-63
2023/07/04 08:12:33;;;;;;;4.00;3.47;;;24.70;84.10;;;;;;4906501;29;20683;-64
2023/07/04 08:14:59;;;;;;;3.40;2.90;;;24.90;82.10;;;;;;4905015;29;20198;-63
2023/07/04 08:17:24;;;;;;;4.13;3.23;;;25.00;83.20;;;;;;4906936;29;20448;-65
2023/07/04 08:19:50;;;;;;;3.10;2.80;;;25.20;82.70;;;;;;4904745;29;20200;-64
2023/07/04 08:22:16;;;;;;;4.90;3.50;;;25.40;81.10;;;;;;4904200;29;20607;-66
2023/07/04 08:24:42;;;;;;;6.00;3.70;;;25.40;77.50;;;;;;4907043;29;20454;-67
2023/07/04 08:27:07;;;;;;;6.40;4.43;;;25.50;76.80;;;;;;4905847;29;20190;-63
2023/07/04 08:29:33;;;;;;;8.47;7.63;;;25.80;73.70;;;;;;4904902;29;20185;-63
2023/07/04 08:31:59;;;;;;;5.20;4.03;;;26.10;72.00;;;;;;4907605;29;20224;-63
2023/07/04 08:34:24;;;;;;;6.80;4.37;;;26.40;73.00;;;;;;4907105;29;20211;-64
2023/07/04 08:36:50;;;;;;;4.10;3.77;;;26.90;71.70;;;;;;4905445;29;20665;-65
2023/07/04 08:39:16;;;;;;;6.97;4.17;;;27.00;68.50;;;;;;4903306;29;20190;-64
2023/07/04 08:41:44;;;;;;;8.23;4.10;;;26.90;68.70;;;;;;4908217;29;20202;-64
2023/07/04 08:44:23;;;;;;;6.23;4.53;;;27.10;68.40;;;;;;4903300;29;20465;-64
2023/07/04 08:46:53;;;;;;;6.17;3.83;;;27.40;67.70;;;;;;4908188;29;20458;-66
2023/07/04 08:49:42;;;;;;;4.40;4.00;;;27.90;65.60;;;;;;4905706;29;20540;-68
2023/07/04 08:52:36;;;;;;;7.20;4.33;;;27.70;64.90;;;;;;4906706;29;20479;-70
2023/07/04 08:55:02;;;;;;;4.80;4.00;;;28.50;64.30;;;;;;4902292;29;20498;-63
2023/07/04 08:57:43;;;;;;;5.03;4.50;;;29.30;61.20;;;;;;4906437;29;21241;-67
2023/07/04 09:00:13;;;;;;;6.00;4.87;;;29.00;61.00;;;;;;4909046;29;20472;-75
2023/07/04 09:02:59;;;;;;;5.90;4.40;;;28.90;61.70;;;;;;4907397;29;20479;-66
2023/07/04 09:05:35;;;;;;;6.90;4.60;;;28.70;61.70;;;;;;4909277;29;20489;-67
2023/07/04 09:08:21;;;;;;;5.10;3.97;;;29.10;60.60;;;;;;4908497;29;20979;-67
2023/07/04 09:10:51;;;;;;;6.20;4.10;;;30.00;59.50;;;;;;4911110;29;20478;-66
2023/07/04 09:13:26;;;;;;;5.67;3.63;;;31.40;56.50;;;;;;4901713;29;21058;-64
2023/07/04 09:15:52;;;;;;;4.80;4.40;;;31.50;55.90;;;;;;4908161;29;20447;-65
2023/07/04 09:18:38;;;;;;;7.23;4.67;;;32.20;55.10;;;;;;4906353;29;20527;-65
2023/07/04 09:21:14;;;;;;;6.43;4.93;;;33.60;51.50;;;;;;4903940;29;20438;-62
2023/07/04 09:23:41;;;;;;;6.77;5.57;;;34.20;49.50;;;;;;4905450;29;22299;-68
2023/07/04 09:26:10;;;;;;;6.00;5.40;;;34.20;47.10;;;;;;4909278;29;20457;-74
2023/07/04 09:28:39;;;;;;;7.03;6.30;;;34.40;46.10;;;;;;4904941;29;20522;-73
2023/07/04 09:31:08;;;;;;;7.67;6.97;;;33.40;45.20;;;;;;4906625;29;21028;-70
2023/07/04 09:33:35;;;;;;;8.57;5.83;;;33.20;45.30;;;;;;4905705;29;22884;-67
2023/07/04 09:36:01;;;;;;;6.60;6.00;;;33.90;43.80;;;;;;4908794;29;20533;-63
2023/07/04 09:38:38;;;;;;;7.90;5.83;;;33.60;44.00;;;;;;4904529;29;20537;-67
2023/07/04 09:41:04;;;;;;;5.87;5.33;;;34.50;43.50;;;;;;4907709;29;20285;-68
2023/07/04 09:43:33;;;;;;;7.77;5.40;;;35.30;42.50;;;;;;4903354;29;20641;-67
2023/07/04 09:46:10;;;;;;;6.10;5.40;;;34.30;42.90;;;;;;4909116;29;20202;-68
2023/07/04 09:48:36;;;;;;;5.80;5.30;;;33.00;44.60;;;;;;4907260;29;20460;-67
2023/07/04 09:51:18;;;;;;;5.27;4.87;;;31.90;46.00;;;;;;4912487;29;20478;-64
2023/07/04 09:53:44;;;;;;;5.17;4.67;;;31.00;48.60;;;;;;4908587;29;20209;-68
2023/07/04 09:56:11;;;;;;;11.17;5.27;;;30.50;50.10;;;;;;4910484;29;20829;-67
2023/07/04 09:58:37;;;;;;;6.33;4.47;;;29.40;51.30;;;;;;4910520;29;20456;-70
2023/07/04 10:01:11;;;;;;;5.67;5.17;;;29.10;52.50;;;;;;4911910;29;20510;-74
2023/07/04 10:03:39;;;;;;;6.70;5.47;;;30.10;54.20;;;;;;4912971;29;20475;-72
2023/07/04 10:06:06;;;;;;;6.13;5.23;;;28.30;53.60;;;;;;4905964;29;20448;-67
2023/07/04 10:08:48;;;;;;;7.50;5.27;;;28.10;53.60;;;;;;4909139;29;20442;-65
2023/07/04 10:11:29;;;;;;;5.30;4.80;;;27.70;54.60;;;;;;4910015;29;21154;-66
2023/07/04 10:14:02;;;;;;;6.63;5.83;;;27.30;55.70;;;;;;4907081;29;20532;-66
2023/07/04 10:16:28;;;;;;;6.43;5.70;;;27.50;56.40;;;;;;4910862;29;20445;-65
2023/07/04 10:19:02;;;;;;;7.00;5.50;;;28.80;54.50;;;;;;4908732;29;20452;-66
2023/07/04 10:21:28;;;;;;;6.57;5.43;;;30.70;51.40;;;;;;4905347;29;20541;-66
2023/07/04 10:23:53;;;;;;;5.40;4.90;;;32.60;48.90;;;;;;4907529;29;20470;-67
2023/07/04 10:26:19;;;;;;;8.20;5.60;;;33.00;47.10;;;;;;4904327;29;20660;-66
2023/07/04 10:28:47;;;;;;;6.23;4.80;;;32.30;46.70;;;;;;4908741;29;20216;-66
2023/07/04 10:31:18;;;;;;;5.87;4.50;;;32.10;46.60;;;;;;4907897;29;21065;-66
2023/07/04 10:33:58;;;;;;;5.53;5.03;;;32.80;45.80;;;;;;4910414;29;20484;-66
2023/07/04 10:36:28;;;;;;;5.27;4.80;;;32.60;45.40;;;;;;4905621;29;20444;-66
2023/07/04 10:38:59;;;;;;;6.30;4.90;;;32.80;45.50;;;;;;4909329;29;20802;-66
2023/07/04 10:41:57;;;;;;;6.53;5.93;;;33.10;44.30;;;;;;4911795;29;20551;-66
2023/07/04 10:44:25;;;;;;;5.70;5.17;;;32.00;45.10;;;;;;4904477;29;20462;-66
2023/07/04 10:46:54;;;;;;;5.50;5.00;;;31.00;46.70;;;;;;4910004;29;20459;-66
2023/07/04 10:49:23;;;;;;;5.50;5.00;;;30.20;48.80;;;;;;4908275;29;20454;-66
2023/07/04 10:51:55;;;;;;;6.20;5.60;;;28.30;51.60;;;;;;4907033;29;20577;-66
2023/07/04 10:54:21;;;;;;;6.10;5.50;;;28.20;52.30;;;;;;4908501;29;20444;-66
2023/07/04 10:56:52;;;;;;;6.70;5.37;;;27.80;53.60;;;;;;4908644;29;20458;-66
2023/07/04 10:59:28;;;;;;;6.10;5.47;;;27.40;54.40;;;;;;4903550;29;20223;-64
2023/07/04 11:02:03;;;;;;;8.00;5.50;;;26.80;55.00;;;;;;4901270;29;20867;-70
2023/07/04 11:04:35;;;;;;;6.23;5.30;;;26.70;55.50;;;;;;4911560;29;20468;-70
2023/07/04 11:07:06;;;;;;;5.57;4.87;;;26.60;55.80;;;;;;4903786;29;20464;-67
2023/07/04 11:09:35;;;;;;;5.87;5.27;;;27.10;55.40;;;;;;4907691;29;20454;-68
2023/07/04 11:12:05;;;;;;;9.03;7.30;;;29.00;52.80;;;;;;4910151;29;20484;-68
2023/07/04 11:14:32;;;;;;;7.53;5.33;;;30.90;50.00;;;;;;4907242;29;20548;-68
2023/07/04 11:17:03;;;;;;;5.43;4.93;;;32.00;47.70;;;;;;4906229;29;20471;-67
2023/07/04 11:19:32;;;;;;;6.13;5.53;;;33.50;45.40;;;;;;4909627;29;20434;-69
2023/07/04 11:22:01;;;;;;;5.43;4.83;;;34.20;43.50;;;;;;4907501;29;20477;-69
2023/07/04 11:24:38;;;;;;;5.90;5.03;;;35.20;41.90;;;;;;4904476;29;20517;-71
2023/07/04 11:27:13;;;;;;;5.20;4.67;;;36.30;40.10;;;;;;4912240;29;20456;-76
2023/07/04 11:29:50;;;;;;;5.40;4.50;;;35.70;39.40;;;;;;4909427;29;20445;-68
2023/07/04 11:32:19;;;;;;;7.17;4.90;;;35.40;40.20;;;;;;4907005;29;20470;-68
2023/07/04 11:34:49;;;;;;;5.53;4.53;;;34.50;40.20;;;;;;4907306;29;20451;-71
2023/07/04 11:37:18;;;;;;;4.90;4.00;;;34.10;40.70;;;;;;4905708;29;20438;-69
2023/07/04 11:39:49;;;;;;;5.17;4.67;;;33.70;40.30;;;;;;4908694;29;20454;-67
2023/07/04 11:42:22;;;;;;;4.53;4.03;;;34.10;40.50;;;;;;4908096;29;20577;-64
2023/07/04 11:44:56;;;;;;;4.50;4.00;;;34.40;40.40;;;;;;4906975;29;20571;-66
2023/07/04 11:47:40;;;;;;;6.40;4.20;;;34.10;39.40;;;;;;4908095;29;21650;-69
2023/07/04 11:50:34;;;;;;;6.20;4.57;;;33.00;40.30;;;;;;4907814;29;20485;-67
2023/07/04 11:53:02;;;;;;;4.17;3.80;;;32.80;40.80;;;;;;4907855;29;20517;-70
2023/07/04 11:55:35;;;;;;;4.80;4.13;;;32.60;41.10;;;;;;4906100;29;20503;-66
2023/07/04 11:58:01;;;;;;;4.90;4.17;;;32.10;41.00;;;;;;4901862;29;20452;-72
2023/07/04 12:00:32;;;;;;;5.60;3.80;;;31.30;42.10;;;;;;4904938;29;20439;-71
2023/07/04 12:03:17;;;;;;;4.67;4.27;;;30.70;43.50;;;;;;4905578;29;20209;-68
2023/07/04 12:05:44;;;;;;;4.50;4.10;;;30.40;44.60;;;;;;4907050;29;20507;-64
2023/07/04 12:08:17;;;;;;;5.13;4.50;;;30.20;45.60;;;;;;4909779;29;20988;-64
2023/07/04 12:10:43;;;;;;;5.30;4.80;;;29.90;47.00;;;;;;4906143;29;20489;-67
2023/07/04 12:13:09;;;;;;;5.13;3.53;;;29.60;45.60;;;;;;4908549;29;20471;-72
2023/07/04 12:15:37;;;;;;;4.30;3.90;;;29.20;45.50;;;;;;4907719;29;20452;-67
2023/07/04 12:18:23;;;;;;;5.03;4.63;;;28.90;46.80;;;;;;4907803;29;20205;-68
2023/07/04 12:20:50;;;;;;;5.57;4.77;;;28.50;48.40;;;;;;4910481;29;20454;-71
2023/07/04 12:23:16;;;;;;;7.90;6.37;;;28.30;49.10;;;;;;4908236;29;20993;-68
2023/07/04 12:25:47;;;;;;;5.47;4.97;;;28.20;49.40;;;;;;4906608;29;20545;-70
2023/07/04 12:28:14;;;;;;;5.33;4.37;;;28.10;49.50;;;;;;4904452;29;20637;-70
2023/07/04 12:30:42;;;;;;;6.43;5.70;;;28.10;49.30;;;;;;4906628;29;20466;-67
2023/07/04 12:33:25;;;;;;;5.00;4.20;;;27.70;49.60;;;;;;4907608;29;21054;-67
2023/07/04 12:35:59;;;;;;;4.77;4.23;;;27.40;50.40;;;;;;4907868;29;20475;-69
2023/07/04 12:38:27;;;;;;;5.00;4.60;;;27.40;50.70;;;;;;4906681;29;20450;-70
2023/07/04 12:40:57;;;;;;;5.40;4.50;;;27.50;50.20;;;;;;4920214;29;20971;-70
2023/07/04 12:43:28;;;;;;;4.60;4.20;;;27.60;50.10;;;;;;4897354;29;20848;-68
2023/07/04 12:46:07;;;;;;;5.00;4.00;;;27.80;50.40;;;;;;4905889;29;20500;-66
2023/07/04 12:48:34;;;;;;;5.57;5.07;;;27.80;50.10;;;;;;4907253;29;20448;-66
2023/07/04 12:51:01;;;;;;;5.03;4.40;;;27.80;49.70;;;;;;4910490;29;20473;-66
2023/07/04 12:53:28;;;;;;;5.17;4.60;;;27.80;49.50;;;;;;4909196;29;20470;-66
2023/07/04 12:55:55;;;;;;;5.47;4.47;;;27.90;49.90;;;;;;4904584;29;20815;-66
2023/07/04 12:58:20;;;;;;;5.63;5.13;;;27.70;49.90;;;;;;4908317;29;20455;-66